Time;durP1;ratioP1;P1;durP2;ratioP2;P2;SDS_P1;SDS_P2;PMS_P1;PMS_P2;Temp;Humidity;BMP_temperature;BMP_pressure;BME280_temperature;BME280_humidity;BME280_pressure;Samples;Min_cycle;Max_cycle;Signal;HPM_P1;HPM_P2
2023/01/05 00:02:20;;;;;;;1.60;1.17;;;12.10;98.20;;;;;;5014453;28;20483;-74
2023/01/05 00:04:47;;;;;;;1.60;1.10;;;12.10;98.20;;;;;;5028803;28;20970;-75
2023/01/05 00:07:17;;;;;;;1.60;1.10;;;12.10;98.20;;;;;;5026526;28;21211;-74
2023/01/05 00:09:44;;;;;;;1.60;1.27;;;12.10;98.20;;;;;;5024192;28;21026;-75
2023/01/05 00:23:16;;;;;;;1.60;1.10;;;12.00;98.20;;;;;;5029879;28;20885;-74
2023/01/05 00:25:42;;;;;;;1.60;1.10;;;12.00;98.20;;;;;;5019380;28;21007;-76
2023/01/05 00:28:09;;;;;;;1.97;1.37;;;12.00;98.20;;;;;;5016847;28;20565;-76
2023/01/05 00:30:40;;;;;;;1.60;1.00;;;12.00;98.20;;;;;;5029266;28;20495;-77
2023/01/05 00:33:08;;;;;;;1.60;1.20;;;12.00;98.20;;;;;;5032975;28;20495;-76
2023/01/05 00:35:35;;;;;;;1.60;1.17;;;12.00;98.20;;;;;;5022562;28;20499;-76
2023/01/05 00:38:02;;;;;;;1.60;1.20;;;12.00;98.20;;;;;;5032453;28;20482;-76
2023/01/05 00:40:30;;;;;;;1.60;1.17;;;12.00;98.20;;;;;;5031360;28;20455;-76
2023/01/05 00:42:57;;;;;;;1.57;1.03;;;11.90;98.20;;;;;;5020277;28;20495;-76
2023/01/05 00:45:24;;;;;;;1.60;1.20;;;11.90;98.20;;;;;;5027400;28;20815;-76
2023/01/05 00:47:52;;;;;;;1.70;1.43;;;11.90;98.20;;;;;;5030142;28;20483;-77
2023/01/05 00:50:20;;;;;;;1.60;1.10;;;11.90;98.20;;;;;;5020215;28;21020;-75
2023/01/05 00:52:47;;;;;;;1.60;1.20;;;11.90;98.20;;;;;;5032562;28;20496;-77
2023/01/05 00:55:14;;;;;;;1.60;1.10;;;11.90;98.20;;;;;;5027289;28;20470;-77
2023/01/05 00:57:44;;;;;;;1.60;1.10;;;11.90;98.20;;;;;;5028960;28;20533;-75
2023/01/05 01:00:14;;;;;;;1.60;1.10;;;11.90;98.20;;;;;;5018566;28;20929;-76
2023/01/05 01:02:41;;;;;;;1.60;1.07;;;11.80;98.20;;;;;;5029966;28;21030;-75
2023/01/05 01:05:10;;;;;;;1.60;1.10;;;11.90;98.20;;;;;;5019279;28;20985;-76
2023/01/05 01:07:37;;;;;;;1.60;1.10;;;11.80;98.20;;;;;;5026535;28;20913;-77
2023/01/05 01:10:04;;;;;;;1.60;1.10;;;11.80;98.20;;;;;;5026181;28;21018;-76
2023/01/05 01:12:31;;;;;;;1.60;1.13;;;11.80;98.20;;;;;;5019018;28;21074;-76
2023/01/05 01:14:59;;;;;;;1.60;1.00;;;11.80;98.20;;;;;;5022573;28;20821;-76
2023/01/05 01:17:26;;;;;;;1.60;1.10;;;11.80;98.20;;;;;;5023119;28;20647;-77
2023/01/05 01:19:55;;;;;;;1.60;1.10;;;11.80;98.20;;;;;;5023749;28;20451;-76
2023/01/05 01:22:26;;;;;;;1.60;1.10;;;11.80;98.20;;;;;;5024049;28;21069;-76
2023/01/05 01:24:53;;;;;;;1.60;1.03;;;11.80;98.20;;;;;;5023061;28;20463;-76
2023/01/05 01:27:20;;;;;;;1.60;1.10;;;11.80;98.20;;;;;;5021231;28;20478;-75
2023/01/05 01:29:47;;;;;;;1.60;1.20;;;11.80;98.20;;;;;;5023083;28;20487;-76
2023/01/05 01:32:15;;;;;;;1.60;1.10;;;11.70;98.20;;;;;;5022564;28;21456;-76
2023/01/05 01:34:42;;;;;;;1.60;1.10;;;11.70;98.20;;;;;;5025345;28;20483;-75
2023/01/05 01:37:09;;;;;;;1.60;1.20;;;11.70;98.20;;;;;;5016214;28;20508;-75
2023/01/05 01:39:36;;;;;;;1.60;1.10;;;11.70;98.20;;;;;;5025975;28;20460;-75
2023/01/05 01:42:03;;;;;;;1.57;1.00;;;11.70;98.20;;;;;;5016831;28;20487;-75
2023/01/05 01:44:52;;;;;;;1.60;1.20;;;11.70;98.20;;;;;;5021363;28;20543;-74
2023/01/05 01:47:42;;;;;;;1.60;1.10;;;11.60;98.20;;;;;;5020412;28;20482;-75
2023/01/05 01:50:16;;;;;;;1.60;1.20;;;11.60;98.20;;;;;;5016130;28;20483;-75
2023/01/05 01:52:44;;;;;;;1.60;1.07;;;11.60;98.20;;;;;;5025680;28;20865;-74
2023/01/05 01:55:12;;;;;;;1.57;1.00;;;11.60;98.20;;;;;;5022901;28;20857;-75
2023/01/05 01:57:39;;;;;;;1.60;1.20;;;11.60;98.20;;;;;;5025202;28;20482;-75
2023/01/05 02:00:08;;;;;;;2.07;1.73;;;11.60;98.20;;;;;;5013129;28;20520;-75
2023/01/05 02:02:37;;;;;;;1.60;1.10;;;11.60;98.20;;;;;;5030789;28;20497;-75
2023/01/05 02:05:08;;;;;;;1.60;1.10;;;11.60;98.20;;;;;;5018669;28;21091;-75
2023/01/05 02:07:44;;;;;;;1.60;1.20;;;11.50;98.20;;;;;;5013845;28;20488;-74
2023/01/05 02:10:12;;;;;;;1.60;1.10;;;11.50;98.20;;;;;;5020527;28;20548;-74
2023/01/05 02:12:53;;;;;;;1.60;1.00;;;11.50;98.20;;;;;;5023450;28;20498;-77
2023/01/05 02:15:30;;;;;;;1.60;1.20;;;11.50;98.20;;;;;;5026365;28;20459;-76
2023/01/05 02:18:11;;;;;;;1.60;1.10;;;11.50;98.20;;;;;;5027899;28;20474;-76
2023/01/05 02:20:54;;;;;;;1.60;1.20;;;11.50;98.20;;;;;;5026262;28;20459;-76
2023/01/05 02:24:01;;;;;;;1.60;1.10;;;11.50;98.20;;;;;;5012304;28;20483;-76
2023/01/05 02:27:11;;;;;;;1.60;1.20;;;11.50;98.20;;;;;;5008539;28;20987;-76
2023/01/05 02:30:17;;;;;;;1.60;1.10;;;11.50;98.20;;;;;;5027867;28;20493;-76
2023/01/05 02:32:54;;;;;;;1.60;1.10;;;11.40;98.20;;;;;;5027311;28;20885;-79
2023/01/05 02:35:31;;;;;;;1.60;1.10;;;11.40;98.20;;;;;;5025999;28;20470;-77
2023/01/05 02:38:08;;;;;;;1.60;1.00;;;11.40;98.20;;;;;;5027403;28;20631;-78
2023/01/05 02:40:43;;;;;;;1.60;1.10;;;11.40;98.20;;;;;;5025752;28;20462;-76
2023/01/05 02:43:15;;;;;;;1.60;1.10;;;11.40;98.20;;;;;;5017823;28;20489;-76
2023/01/05 02:45:42;;;;;;;1.60;1.00;;;11.40;98.20;;;;;;5025682;28;20455;-77
2023/01/05 02:48:10;;;;;;;1.60;1.20;;;11.40;98.20;;;;;;5032569;28;20483;-76
2023/01/05 02:50:43;;;;;;;1.60;1.20;;;11.40;98.20;;;;;;5024397;28;20487;-77
2023/01/05 02:53:17;;;;;;;1.60;1.20;;;11.40;98.20;;;;;;5034207;28;20475;-78
2023/01/05 02:55:48;;;;;;;1.60;1.10;;;11.40;98.20;;;;;;5022043;28;20466;-77
2023/01/05 02:58:20;;;;;;;1.60;1.20;;;11.40;98.20;;;;;;5014071;28;21006;-77
2023/01/05 03:00:55;;;;;;;1.60;1.20;;;11.40;98.20;;;;;;5021087;28;20451;-77
2023/01/05 03:03:34;;;;;;;1.60;1.20;;;11.40;98.20;;;;;;5046623;28;20566;-77
2023/01/05 03:06:05;;;;;;;1.60;1.10;;;11.40;98.20;;;;;;5020596;28;20887;-75
2023/01/05 03:08:37;;;;;;;1.60;1.00;;;11.40;98.20;;;;;;5039255;28;20924;-78
2023/01/05 03:13:57;;;;;;;1.60;1.10;;;11.30;98.20;;;;;;5035767;28;20802;-78
2023/01/05 03:16:29;;;;;;;1.80;1.60;;;11.30;98.20;;;;;;5024008;28;20489;-78
2023/01/05 03:35:45;;;;;;;1.60;1.20;;;11.30;98.20;;;;;;5025049;28;20439;-77
2023/01/05 03:38:17;;;;;;;1.60;1.10;;;11.30;98.20;;;;;;5007864;28;20472;-78
2023/01/05 03:40:46;;;;;;;1.60;1.10;;;11.30;98.20;;;;;;5032388;28;20466;-79
2023/01/05 03:43:13;;;;;;;1.60;1.10;;;11.20;98.20;;;;;;5016927;28;20580;-78
2023/01/05 03:45:44;;;;;;;1.60;1.10;;;11.20;98.20;;;;;;5028890;28;20463;-77
2023/01/05 03:48:11;;;;;;;1.60;1.10;;;11.20;98.20;;;;;;5018071;28;20475;-80
2023/01/05 03:50:38;;;;;;;1.60;1.20;;;11.20;98.20;;;;;;5027852;28;20482;-76
2023/01/05 03:53:06;;;;;;;1.60;1.10;;;11.20;98.20;;;;;;5032899;28;21048;-76
2023/01/05 03:55:35;;;;;;;1.60;1.10;;;11.20;98.20;;;;;;5028291;28;20463;-76
2023/01/05 03:58:02;;;;;;;1.60;1.20;;;11.10;98.20;;;;;;5032177;28;20505;-76
2023/01/05 04:00:30;;;;;;;1.60;1.10;;;11.10;98.20;;;;;;5026368;28;20847;-77
2023/01/05 04:02:56;;;;;;;1.60;1.20;;;11.10;98.20;;;;;;5036874;28;20722;-77
2023/01/05 04:05:23;;;;;;;1.70;1.30;;;11.10;98.20;;;;;;5026726;28;20839;-76
2023/01/05 04:07:50;;;;;;;1.60;1.30;;;11.10;98.20;;;;;;5031088;28;20520;-77
2023/01/05 04:10:18;;;;;;;1.60;1.20;;;11.10;98.20;;;;;;5028793;28;20512;-78
2023/01/05 04:12:47;;;;;;;1.60;1.23;;;11.10;98.20;;;;;;5021661;28;20892;-78
2023/01/05 04:15:15;;;;;;;1.60;1.20;;;11.10;98.20;;;;;;5024782;28;20456;-75
2023/01/05 04:17:42;;;;;;;1.60;1.20;;;11.10;98.20;;;;;;5032791;28;20504;-77
2023/01/05 04:20:10;;;;;;;1.60;1.10;;;11.10;98.20;;;;;;5027813;28;21034;-78
2023/01/05 04:22:37;;;;;;;1.60;1.30;;;11.10;98.20;;;;;;5036752;28;20559;-77
2023/01/05 04:25:05;;;;;;;1.60;1.20;;;11.10;98.20;;;;;;5035091;28;20535;-78
2023/01/05 04:27:33;;;;;;;1.60;1.10;;;11.10;98.20;;;;;;5020833;28;21033;-76
2023/01/05 04:30:00;;;;;;;1.60;1.20;;;11.00;98.20;;;;;;5021754;28;20460;-77
2023/01/05 04:32:27;;;;;;;1.60;1.10;;;11.00;98.20;;;;;;5025854;28;20513;-78
2023/01/05 04:34:54;;;;;;;1.60;1.10;;;11.00;98.20;;;;;;5028224;28;20459;-78
2023/01/05 04:37:21;;;;;;;1.60;1.17;;;10.90;98.20;;;;;;5029117;28;20914;-79
2023/01/05 04:39:47;;;;;;;1.60;1.23;;;10.90;98.20;;;;;;5034756;28;20490;-79
2023/01/05 04:42:14;;;;;;;1.60;1.13;;;10.90;98.20;;;;;;5027460;28;20493;-79
2023/01/05 04:44:42;;;;;;;1.60;1.20;;;10.90;98.20;;;;;;5026927;28;20471;-80
2023/01/05 04:47:09;;;;;;;1.60;1.10;;;10.90;98.20;;;;;;5026252;28;20481;-78
2023/01/05 04:49:36;;;;;;;1.60;1.10;;;10.90;98.20;;;;;;5031525;28;20483;-78
2023/01/05 04:52:03;;;;;;;1.60;1.10;;;10.80;98.20;;;;;;5028642;28;21262;-78
2023/01/05 04:54:30;;;;;;;1.60;1.20;;;10.90;98.20;;;;;;5035244;28;20978;-77
2023/01/05 04:56:57;;;;;;;1.60;1.13;;;10.80;98.20;;;;;;5026337;28;20482;-77
2023/01/05 04:59:24;;;;;;;1.60;1.10;;;10.90;98.20;;;;;;5030999;28;20502;-77
2023/01/05 05:01:52;;;;;;;1.70;1.30;;;10.80;98.20;;;;;;5024613;28;20482;-76
2023/01/05 05:04:18;;;;;;;1.60;1.20;;;10.80;98.20;;;;;;5027949;28;20486;-76
2023/01/05 05:06:45;;;;;;;1.60;1.20;;;10.80;98.20;;;;;;5020726;28;20471;-76
2023/01/05 05:09:12;;;;;;;1.60;1.20;;;10.80;98.20;;;;;;5031005;28;20460;-76
2023/01/05 05:11:39;;;;;;;1.60;1.20;;;10.80;98.20;;;;;;5017208;28;20490;-76
2023/01/05 05:14:07;;;;;;;1.63;1.20;;;10.80;98.20;;;;;;5025704;28;20463;-76
2023/01/05 05:16:36;;;;;;;1.60;1.10;;;10.70;98.20;;;;;;5014191;28;20484;-76
2023/01/05 05:19:05;;;;;;;1.60;1.10;;;10.70;98.20;;;;;;5030246;28;20949;-76
2023/01/05 05:21:32;;;;;;;1.60;1.20;;;10.70;98.20;;;;;;5018006;28;20912;-76
2023/01/05 05:23:58;;;;;;;1.60;1.10;;;10.70;98.20;;;;;;5028015;28;20943;-76
2023/01/05 05:26:25;;;;;;;1.60;1.20;;;10.70;98.20;;;;;;5012491;28;20489;-76
2023/01/05 05:28:52;;;;;;;1.60;1.10;;;10.70;98.20;;;;;;5034067;28;20498;-76
2023/01/05 05:31:19;;;;;;;1.60;1.17;;;10.70;98.20;;;;;;5013008;28;20475;-76
2023/01/05 05:33:46;;;;;;;1.60;1.20;;;10.70;98.20;;;;;;5030154;28;20494;-76
2023/01/05 05:36:14;;;;;;;1.60;1.20;;;10.70;98.20;;;;;;5006172;28;20478;-77
2023/01/05 05:38:41;;;;;;;1.60;1.10;;;10.70;98.20;;;;;;5036562;28;20886;-76
2023/01/05 05:41:08;;;;;;;1.60;1.20;;;10.70;98.20;;;;;;5012044;28;20497;-76
2023/01/05 05:43:35;;;;;;;1.60;1.20;;;10.70;98.20;;;;;;5030712;28;20785;-76
2023/01/05 05:46:02;;;;;;;1.60;1.30;;;10.70;98.20;;;;;;5014325;28;20468;-76
2023/01/05 05:48:29;;;;;;;1.60;1.20;;;10.70;98.20;;;;;;5034443;28;20467;-76
2023/01/05 05:50:58;;;;;;;1.63;1.23;;;10.70;98.20;;;;;;5002612;28;20575;-76
2023/01/05 05:53:26;;;;;;;1.60;1.13;;;10.70;98.20;;;;;;5021557;28;20589;-76
2023/01/05 05:55:53;;;;;;;1.60;1.20;;;10.70;98.20;;;;;;4990814;28;20918;-75
2023/01/05 05:58:20;;;;;;;1.60;1.10;;;10.70;98.20;;;;;;5020281;28;20478;-75
2023/01/05 06:00:47;;;;;;;1.60;1.30;;;10.70;98.20;;;;;;5002901;28;20601;-75
2023/01/05 06:03:14;;;;;;;1.60;1.20;;;10.70;98.20;;;;;;5018284;28;20520;-75
2023/01/05 06:05:41;;;;;;;1.60;1.10;;;10.70;98.20;;;;;;5008801;28;20590;-75
2023/01/05 06:08:08;;;;;;;1.60;1.10;;;10.70;98.20;;;;;;5006986;28;20501;-75
2023/01/05 06:10:36;;;;;;;1.60;1.10;;;10.70;98.20;;;;;;5023396;28;20958;-76
2023/01/05 06:13:03;;;;;;;1.60;1.17;;;10.70;98.20;;;;;;5028425;28;20500;-76
2023/01/05 06:15:29;;;;;;;1.60;1.20;;;10.80;98.20;;;;;;5022119;28;20491;-77
2023/01/05 06:17:56;;;;;;;1.60;1.20;;;10.80;98.20;;;;;;5026498;28;21357;-76
2023/01/05 06:20:23;;;;;;;1.60;1.10;;;10.80;98.20;;;;;;5022915;28;20455;-76
2023/01/05 06:22:50;;;;;;;1.60;1.20;;;10.80;98.20;;;;;;5029113;28;20864;-77
2023/01/05 06:25:17;;;;;;;1.60;1.20;;;10.70;98.20;;;;;;5022579;28;20979;-76
2023/01/05 06:27:45;;;;;;;1.60;1.10;;;10.70;98.20;;;;;;5023100;28;20541;-77
2023/01/05 06:30:13;;;;;;;1.60;1.30;;;10.70;98.20;;;;;;5020758;28;20456;-76
2023/01/05 06:32:40;;;;;;;1.60;1.27;;;10.70;98.20;;;;;;5032132;28;20488;-76
2023/01/05 06:35:07;;;;;;;1.60;1.10;;;10.70;98.20;;;;;;5027177;28;20466;-76
2023/01/05 06:37:34;;;;;;;1.60;1.13;;;10.70;98.20;;;;;;5030046;28;20983;-76
2023/01/05 06:40:00;;;;;;;1.60;1.17;;;10.70;98.20;;;;;;5021500;28;20469;-76
2023/01/05 06:42:27;;;;;;;1.60;1.20;;;10.70;98.20;;;;;;5031198;28;20486;-76
2023/01/05 06:44:55;;;;;;;1.60;1.20;;;10.70;98.20;;;;;;5028793;28;20470;-76
2023/01/05 06:47:22;;;;;;;1.60;1.10;;;10.70;98.20;;;;;;5025666;28;21029;-75
2023/01/05 06:49:49;;;;;;;1.60;1.30;;;10.70;98.20;;;;;;5027444;28;20459;-76
2023/01/05 06:52:15;;;;;;;1.60;1.10;;;10.70;98.20;;;;;;5027531;28;21038;-76
2023/01/05 06:54:42;;;;;;;1.60;1.20;;;10.70;98.20;;;;;;5028511;28;20455;-76
2023/01/05 06:57:10;;;;;;;1.60;1.20;;;10.70;98.20;;;;;;5026889;28;20492;-76
2023/01/05 06:59:37;;;;;;;1.60;1.20;;;10.70;98.20;;;;;;5034063;28;20467;-75
2023/01/05 07:02:05;;;;;;;1.60;1.10;;;10.70;98.20;;;;;;5026057;28;20490;-76
2023/01/05 07:04:32;;;;;;;1.60;1.10;;;10.70;98.20;;;;;;5031191;28;20459;-75
2023/01/05 07:06:59;;;;;;;1.60;1.10;;;10.70;98.20;;;;;;5023020;28;21074;-75
2023/01/05 07:09:26;;;;;;;1.60;1.13;;;10.70;98.20;;;;;;5032841;28;20467;-75
2023/01/05 07:11:52;;;;;;;1.60;1.20;;;10.70;98.20;;;;;;5027196;28;20485;-75
2023/01/05 07:14:19;;;;;;;1.60;1.17;;;10.70;98.20;;;;;;5036131;28;20463;-75
2023/01/05 07:16:47;;;;;;;1.60;1.10;;;10.70;98.20;;;;;;5020411;28;20477;-75
2023/01/05 07:19:15;;;;;;;1.60;1.10;;;10.70;98.20;;;;;;5031462;28;20859;-74
2023/01/05 07:21:42;;;;;;;1.60;1.20;;;10.70;98.20;;;;;;5020777;28;20541;-74
2023/01/05 07:24:09;;;;;;;1.60;1.10;;;10.70;98.20;;;;;;5032271;28;20460;-75
2023/01/05 07:26:35;;;;;;;1.60;1.10;;;10.70;98.20;;;;;;5021442;28;20480;-74
2023/01/05 07:29:02;;;;;;;1.60;1.10;;;10.70;98.20;;;;;;5036826;28;20467;-74
2023/01/05 07:31:29;;;;;;;1.60;1.20;;;10.70;98.20;;;;;;5021200;28;20850;-74
2023/01/05 07:33:56;;;;;;;1.60;1.10;;;10.70;98.20;;;;;;5034294;28;20486;-75
2023/01/05 07:36:24;;;;;;;1.60;1.10;;;10.70;98.20;;;;;;5021969;28;20481;-74
2023/01/05 07:38:52;;;;;;;1.60;1.30;;;10.70;98.20;;;;;;5035535;28;20489;-74
2023/01/05 07:41:19;;;;;;;1.60;1.10;;;10.70;98.20;;;;;;5020497;28;20474;-74
2023/01/05 07:43:48;;;;;;;1.60;1.10;;;10.70;98.20;;;;;;5036266;28;20486;-74
2023/01/05 07:46:15;;;;;;;1.60;1.20;;;10.70;98.20;;;;;;5017876;28;20768;-74
2023/01/05 07:48:42;;;;;;;1.60;1.20;;;10.70;98.20;;;;;;5038817;28;20459;-74
2023/01/05 07:51:10;;;;;;;1.60;1.10;;;10.70;98.20;;;;;;5019721;28;20500;-74
2023/01/05 07:53:39;;;;;;;1.60;1.30;;;10.70;98.20;;;;;;5036501;28;20483;-74
2023/01/05 07:56:07;;;;;;;1.60;1.30;;;10.70;98.20;;;;;;5016421;28;20457;-74
2023/01/05 07:58:34;;;;;;;1.60;1.30;;;10.70;98.20;;;;;;5037466;28;20517;-74
2023/01/05 08:01:04;;;;;;;1.60;1.10;;;10.70;98.20;;;;;;5014772;28;20467;-74
2023/01/05 08:03:32;;;;;;;1.60;1.20;;;10.70;98.20;;;;;;5035260;28;20483;-74
2023/01/05 08:06:02;;;;;;;1.60;1.20;;;10.80;98.20;;;;;;5011698;28;20494;-76
2023/01/05 08:08:29;;;;;;;1.60;1.20;;;10.80;98.20;;;;;;5024231;28;20467;-76
2023/01/05 08:10:58;;;;;;;1.60;1.10;;;10.80;98.20;;;;;;5015303;28;20464;-75
2023/01/05 08:16:09;;;;;;;1.60;1.20;;;10.80;98.20;;;;;;5018927;28;21249;-76
2023/01/05 08:18:36;;;;;;;1.60;1.20;;;10.90;98.20;;;;;;5039799;28;20478;-75
2023/01/05 08:21:03;;;;;;;1.60;1.30;;;10.90;98.20;;;;;;5019006;28;20499;-76
2023/01/05 08:23:31;;;;;;;1.60;1.13;;;10.90;98.20;;;;;;5040911;28;20518;-75
2023/01/05 08:26:04;;;;;;;1.60;1.20;;;10.90;98.20;;;;;;5017418;28;20459;-75
2023/01/05 08:28:31;;;;;;;1.60;1.20;;;10.90;98.20;;;;;;5035910;28;20464;-74
2023/01/05 08:31:01;;;;;;;1.60;1.20;;;10.90;98.20;;;;;;5014810;28;20995;-74
2023/01/05 08:33:28;;;;;;;1.60;1.20;;;10.90;98.20;;;;;;5039951;28;20479;-75
2023/01/05 08:35:54;;;;;;;1.60;1.30;;;10.90;98.20;;;;;;5015764;28;20486;-75
2023/01/05 08:38:21;;;;;;;1.60;1.20;;;11.00;98.20;;;;;;5040822;28;20827;-75
2023/01/05 08:40:48;;;;;;;1.60;1.10;;;11.00;98.20;;;;;;5014275;28;20517;-75
2023/01/05 08:43:16;;;;;;;1.60;1.20;;;11.00;98.20;;;;;;5034941;28;20495;-75
2023/01/05 08:45:47;;;;;;;1.60;1.10;;;11.00;98.20;;;;;;5023913;28;20472;-76
2023/01/05 08:48:14;;;;;;;1.60;1.00;;;11.00;98.20;;;;;;5017590;28;20475;-77
2023/01/05 08:50:41;;;;;;;1.60;1.20;;;11.10;98.20;;;;;;5027433;28;20892;-76
2023/01/05 08:53:08;;;;;;;1.60;1.13;;;11.10;98.20;;;;;;5032428;28;20875;-75
2023/01/05 08:55:34;;;;;;;1.60;1.10;;;11.20;98.20;;;;;;5023675;28;20463;-75
2023/01/05 08:58:01;;;;;;;1.60;1.10;;;11.20;98.20;;;;;;5029037;28;20482;-75
2023/01/05 09:00:29;;;;;;;1.60;1.13;;;11.20;98.20;;;;;;5027703;28;20459;-77
2023/01/05 09:02:56;;;;;;;1.60;1.10;;;11.20;98.20;;;;;;5030511;28;20475;-75
2023/01/05 09:05:23;;;;;;;1.60;1.10;;;11.30;98.20;;;;;;5026276;28;20466;-76
2023/01/05 09:07:49;;;;;;;1.60;1.10;;;11.30;98.20;;;;;;5026932;28;20480;-75
2023/01/05 09:10:16;;;;;;;1.60;1.10;;;11.30;98.20;;;;;;5022342;28;20456;-75
2023/01/05 09:12:44;;;;;;;1.60;1.00;;;11.40;98.20;;;;;;5027774;28;20479;-75
2023/01/05 09:15:11;;;;;;;1.60;1.10;;;11.40;98.20;;;;;;5025031;28;20460;-76
2023/01/05 09:17:39;;;;;;;1.60;1.20;;;11.40;98.20;;;;;;5029226;28;20493;-75
2023/01/05 09:20:07;;;;;;;1.60;1.10;;;11.40;98.20;;;;;;5025173;28;20463;-75
2023/01/05 09:22:35;;;;;;;1.60;1.20;;;11.40;98.20;;;;;;5027580;28;20493;-73
2023/01/05 09:25:01;;;;;;;1.60;1.10;;;11.40;98.20;;;;;;5027192;28;20521;-76
2023/01/05 09:27:28;;;;;;;1.60;1.10;;;11.40;98.20;;;;;;5026088;28;20486;-75
2023/01/05 09:29:55;;;;;;;1.60;1.00;;;11.40;98.20;;;;;;5023237;28;20464;-75
2023/01/05 09:32:22;;;;;;;1.60;1.10;;;11.40;98.20;;;;;;5021684;28;20483;-76
2023/01/05 09:34:51;;;;;;;1.60;1.20;;;11.50;98.20;;;;;;5012821;28;20983;-76
2023/01/05 09:37:17;;;;;;;1.60;1.10;;;11.50;98.20;;;;;;5025552;28;20478;-76
2023/01/05 09:39:44;;;;;;;1.60;1.10;;;11.50;98.20;;;;;;5027460;28;20463;-76
2023/01/05 09:42:16;;;;;;;1.60;1.10;;;11.50;98.20;;;;;;5017015;28;20534;-75
2023/01/05 09:49:54;;;;;;;1.60;1.20;;;11.70;98.20;;;;;;4981630;28;20488;-75
2023/01/05 09:52:22;;;;;;;1.60;1.20;;;11.70;98.20;;;;;;4972075;28;21006;-75
2023/01/05 09:54:49;;;;;;;1.60;1.20;;;11.70;98.20;;;;;;4979270;28;20465;-75
2023/01/05 09:57:19;;;;;;;1.60;1.20;;;11.70;98.20;;;;;;4973426;28;20697;-76
2023/01/05 09:59:49;;;;;;;1.60;1.20;;;11.70;98.20;;;;;;4981534;28;20478;-73
2023/01/05 10:02:26;;;;;;;1.60;1.10;;;11.80;98.20;;;;;;4975395;28;20572;-76
2023/01/05 10:04:55;;;;;;;1.60;1.20;;;11.80;98.20;;;;;;4982686;28;20962;-75
2023/01/05 10:07:34;;;;;;;1.60;1.20;;;11.80;98.20;;;;;;4970123;28;20493;-74
2023/01/05 10:10:07;;;;;;;1.60;1.10;;;11.80;98.20;;;;;;4986349;28;20496;-74
2023/01/05 10:15:34;;;;;;;1.60;1.10;;;11.90;98.20;;;;;;4980203;28;20492;-75
2023/01/05 10:18:10;;;;;;;1.60;1.10;;;11.90;98.20;;;;;;4974967;28;20473;-74
2023/01/05 10:20:49;;;;;;;1.60;1.10;;;11.90;98.20;;;;;;4980905;28;20457;-74
2023/01/05 10:23:30;;;;;;;1.60;1.10;;;12.00;98.20;;;;;;4960266;28;20484;-75
2023/01/05 10:26:03;;;;;;;1.60;1.10;;;12.00;98.20;;;;;;4970444;28;20788;-75
2023/01/05 10:28:39;;;;;;;1.60;1.10;;;12.00;98.20;;;;;;4986425;28;20461;-75
2023/01/05 10:31:17;;;;;;;1.60;1.13;;;12.00;98.20;;;;;;4970226;28;20486;-74
2023/01/05 10:33:48;;;;;;;1.60;1.10;;;12.10;98.20;;;;;;4986231;28;20687;-73
2023/01/05 10:36:43;;;;;;;1.60;1.10;;;12.10;98.20;;;;;;4976790;28;21020;-75
2023/01/05 10:39:19;;;;;;;1.60;1.10;;;12.10;98.20;;;;;;4974047;28;20544;-75
2023/01/05 10:41:55;;;;;;;1.60;1.00;;;12.10;98.20;;;;;;4975708;28;20605;-74
2023/01/05 10:44:47;;;;;;;1.70;1.40;;;12.20;98.20;;;;;;4985836;28;20456;-75
2023/01/05 10:47:15;;;;;;;1.60;1.10;;;12.20;98.20;;;;;;4975314;28;20496;-73
2023/01/05 10:49:46;;;;;;;1.60;1.10;;;12.30;98.20;;;;;;4979798;28;20532;-75
2023/01/05 10:52:16;;;;;;;1.60;1.10;;;12.30;98.20;;;;;;4976130;28;21040;-74
2023/01/05 10:54:46;;;;;;;1.60;1.10;;;12.30;98.20;;;;;;4986519;28;21013;-76
2023/01/05 10:57:33;;;;;;;1.60;1.10;;;12.30;98.20;;;;;;4976488;28;20877;-75
2023/01/05 11:00:02;;;;;;;1.60;1.10;;;12.30;98.20;;;;;;4984443;28;20469;-75
2023/01/05 11:02:34;;;;;;;1.60;1.00;;;12.30;98.20;;;;;;4964909;28;20500;-74
2023/01/05 11:05:05;;;;;;;1.53;1.00;;;12.30;98.20;;;;;;4983192;28;20497;-74
2023/01/05 11:07:45;;;;;;;1.60;1.10;;;12.30;98.20;;;;;;4970299;28;20484;-73
2023/01/05 11:10:21;;;;;;;1.60;1.00;;;12.30;98.20;;;;;;4986360;28;20479;-75
2023/01/05 11:12:52;;;;;;;1.60;1.10;;;12.30;98.20;;;;;;4974538;28;20492;-74
2023/01/05 11:15:19;;;;;;;1.60;1.20;;;12.30;98.20;;;;;;4980934;28;20508;-75
2023/01/05 11:17:46;;;;;;;1.60;1.00;;;12.30;98.20;;;;;;4971259;28;20480;-75
2023/01/05 11:20:16;;;;;;;1.60;1.00;;;12.40;98.20;;;;;;4986090;28;20863;-74
2023/01/05 11:22:46;;;;;;;1.60;1.10;;;12.50;98.20;;;;;;4977219;28;20506;-75
2023/01/05 11:25:19;;;;;;;1.60;1.00;;;12.60;98.20;;;;;;4979396;28;21344;-74
2023/01/05 11:27:46;;;;;;;1.60;1.10;;;12.70;98.20;;;;;;4975588;28;20484;-73
2023/01/05 11:30:24;;;;;;;1.60;1.20;;;12.70;98.20;;;;;;4979927;28;20461;-74
2023/01/05 11:32:51;;;;;;;1.60;1.10;;;12.80;98.20;;;;;;4976548;28;20511;-74
2023/01/05 11:35:22;;;;;;;1.60;1.13;;;12.80;98.20;;;;;;4983808;28;20568;-74
2023/01/05 11:37:50;;;;;;;1.60;1.17;;;12.90;98.20;;;;;;4976169;28;20504;-73
2023/01/05 11:40:19;;;;;;;2.63;2.43;;;12.90;98.20;;;;;;4989986;28;20465;-74
2023/01/05 11:42:46;;;;;;;1.60;1.00;;;12.90;98.20;;;;;;4978256;28;20993;-74
2023/01/05 11:45:21;;;;;;;1.60;1.10;;;12.80;98.20;;;;;;4988605;28;20491;-74
2023/01/05 11:47:49;;;;;;;1.60;1.10;;;12.80;98.20;;;;;;4976363;28;20488;-74
2023/01/05 11:50:21;;;;;;;1.60;1.20;;;12.80;98.20;;;;;;4982874;28;20477;-75
2023/01/05 11:52:52;;;;;;;1.57;1.00;;;12.80;98.20;;;;;;4976734;28;20663;-73
2023/01/05 11:55:34;;;;;;;1.60;1.13;;;12.80;98.20;;;;;;4978376;28;21070;-74
2023/01/05 11:58:25;;;;;;;1.60;1.10;;;12.80;98.20;;;;;;4974075;28;20572;-73
2023/01/05 12:01:20;;;;;;;1.60;1.07;;;12.80;98.20;;;;;;4974643;28;20520;-74
2023/01/05 12:04:02;;;;;;;1.57;1.03;;;12.80;98.20;;;;;;4985422;28;20457;-75
2023/01/05 12:06:45;;;;;;;1.60;1.10;;;12.90;98.20;;;;;;4972356;28;20511;-75
2023/01/05 12:09:22;;;;;;;1.60;1.10;;;12.90;98.20;;;;;;4979858;28;20465;-74
2023/01/05 12:11:58;;;;;;;1.60;1.10;;;12.90;98.20;;;;;;4969604;28;20512;-72
2023/01/05 12:14:41;;;;;;;1.60;1.10;;;12.90;98.20;;;;;;4980820;28;20879;-74
2023/01/05 12:17:14;;;;;;;1.60;1.00;;;12.90;98.20;;;;;;4968769;28;20480;-75
2023/01/05 12:19:54;;;;;;;1.60;1.10;;;12.90;98.20;;;;;;4989551;28;20539;-75
2023/01/05 12:23:02;;;;;;;1.60;1.10;;;12.90;98.20;;;;;;4978023;28;20481;-74
2023/01/05 12:25:56;;;;;;;1.60;1.10;;;12.90;98.20;;;;;;4904089;29;20485;-75
2023/01/05 12:28:38;;;;;;;1.60;1.07;;;12.90;98.20;;;;;;4949387;28;20464;-75
2023/01/05 12:31:19;;;;;;;3.33;3.13;;;12.90;98.20;;;;;;4966047;28;20466;-75
2023/01/05 12:34:22;;;;;;;1.60;1.00;;;12.90;98.20;;;;;;4987757;28;20488;-75
2023/01/05 12:37:14;;;;;;;1.60;1.00;;;12.90;98.20;;;;;;4927157;28;20500;-74
2023/01/05 12:40:02;;;;;;;1.60;1.10;;;13.00;98.20;;;;;;4988303;28;20469;-74
2023/01/05 12:42:46;;;;;;;1.70;1.57;;;13.00;98.20;;;;;;4966371;28;20918;-74
2023/01/05 12:45:30;;;;;;;3.10;2.90;;;13.00;98.20;;;;;;4980508;28;20484;-75
2023/01/05 12:48:00;;;;;;;1.60;1.13;;;13.00;98.20;;;;;;4975269;28;20489;-74
2023/01/05 12:50:33;;;;;;;1.53;1.00;;;12.90;98.20;;;;;;4975133;28;20466;-75
2023/01/05 12:53:08;;;;;;;1.60;1.00;;;12.90;98.20;;;;;;4968247;28;20506;-74
2023/01/05 12:55:40;;;;;;;1.60;1.10;;;12.80;98.20;;;;;;4981587;28;21233;-73
2023/01/05 12:58:13;;;;;;;1.60;1.00;;;12.80;98.20;;;;;;4974970;28;20491;-74
2023/01/05 13:00:44;;;;;;;1.60;1.10;;;12.70;98.20;;;;;;4973462;28;20469;-74
2023/01/05 13:03:19;;;;;;;1.60;1.10;;;12.70;98.20;;;;;;4961289;28;20477;-74
2023/01/05 13:05:52;;;;;;;1.60;1.20;;;12.60;98.20;;;;;;4978674;28;20565;-75
2023/01/05 13:08:23;;;;;;;1.60;1.30;;;12.70;98.20;;;;;;4977851;28;20470;-74
2023/01/05 13:10:56;;;;;;;1.60;1.17;;;12.70;98.20;;;;;;4969207;28;20473;-73
2023/01/05 13:13:32;;;;;;;1.60;1.20;;;12.60;98.20;;;;;;4972748;28;20480;-74
2023/01/05 13:16:04;;;;;;;2.03;1.53;;;12.70;98.20;;;;;;4976679;28;20488;-73
2023/01/05 13:18:36;;;;;;;1.57;1.10;;;12.70;98.20;;;;;;4986930;28;20970;-74
2023/01/05 13:21:05;;;;;;;1.57;1.00;;;12.70;98.20;;;;;;4969119;28;20589;-73
2023/01/05 13:23:36;;;;;;;1.60;1.00;;;12.80;98.20;;;;;;4987376;28;20484;-73
2023/01/05 13:26:07;;;;;;;1.60;1.10;;;12.80;98.20;;;;;;4966847;28;21103;-74
2023/01/05 13:28:35;;;;;;;1.60;1.10;;;12.80;98.20;;;;;;4984388;28;20461;-74
2023/01/05 13:31:44;;;;;;;1.60;1.20;;;12.80;98.20;;;;;;4977890;28;20465;-74
2023/01/05 13:34:25;;;;;;;1.60;1.20;;;12.80;98.20;;;;;;4969575;28;20868;-74
2023/01/05 13:37:14;;;;;;;1.60;1.10;;;12.80;98.20;;;;;;4975811;28;20859;-75
2023/01/05 13:39:55;;;;;;;1.60;1.00;;;12.80;98.20;;;;;;4985598;28;20688;-73
2023/01/05 13:42:51;;;;;;;1.60;1.07;;;12.90;98.20;;;;;;4970507;28;20491;-75
2023/01/05 13:45:46;;;;;;;1.60;1.13;;;12.90;98.20;;;;;;4978458;28;20488;-73
2023/01/05 13:48:39;;;;;;;1.60;1.20;;;12.90;98.20;;;;;;4973450;28;20480;-73
2023/01/05 13:51:26;;;;;;;1.60;1.07;;;12.90;98.20;;;;;;4977190;28;20627;-74